sensor_id;sensor_type;location;lat;lon;timestamp;P1;durP1;ratioP1;P2;durP2;ratioP2
23714;SDS011;12036;50.858;4.472;2022-09-24T00:01:07;25.73;;;17.60;;
23714;SDS011;12036;50.858;4.472;2022-09-24T00:03:37;26.70;;;16.58;;
23714;SDS011;12036;50.858;4.472;2022-09-24T00:06:04;19.50;;;14.38;;
23714;SDS011;12036;50.858;4.472;2022-09-24T00:08:31;19.20;;;13.93;;
23714;SDS011;12036;50.858;4.472;2022-09-24T00:11:00;20.13;;;13.88;;
23714;SDS011;12036;50.858;4.472;2022-09-24T00:13:27;19.63;;;13.90;;
23714;SDS011;12036;50.858;4.472;2022-09-24T00:15:54;23.38;;;13.60;;
23714;SDS011;12036;50.858;4.472;2022-09-24T00:18:19;18.45;;;12.52;;
23714;SDS011;12036;50.858;4.472;2022-09-24T00:20:46;17.38;;;13.13;;
23714;SDS011;12036;50.858;4.472;2022-09-24T00:23:12;19.27;;;13.18;;
23714;SDS011;12036;50.858;4.472;2022-09-24T00:25:41;18.88;;;11.68;;
23714;SDS011;12036;50.858;4.472;2022-09-24T00:28:29;20.75;;;12.70;;
23714;SDS011;12036;50.858;4.472;2022-09-24T00:30:56;19.23;;;12.90;;
23714;SDS011;12036;50.858;4.472;2022-09-24T00:33:26;21.45;;;13.23;;
23714;SDS011;12036;50.858;4.472;2022-09-24T00:36:00;20.58;;;13.52;;
23714;SDS011;12036;50.858;4.472;2022-09-24T00:40:54;18.83;;;12.40;;
23714;SDS011;12036;50.858;4.472;2022-09-24T00:43:24;23.20;;;14.45;;
23714;SDS011;12036;50.858;4.472;2022-09-24T00:45:57;17.00;;;11.35;;
23714;SDS011;12036;50.858;4.472;2022-09-24T00:48:33;16.92;;;12.05;;
23714;SDS011;12036;50.858;4.472;2022-09-24T00:51:00;16.55;;;11.07;;
23714;SDS011;12036;50.858;4.472;2022-09-24T00:53:28;14.13;;;10.63;;
23714;SDS011;12036;50.858;4.472;2022-09-24T00:55:57;18.00;;;11.77;;
23714;SDS011;12036;50.858;4.472;2022-09-24T00:58:25;17.75;;;11.82;;
23714;SDS011;12036;50.858;4.472;2022-09-24T01:00:53;16.35;;;10.45;;
23714;SDS011;12036;50.858;4.472;2022-09-24T01:03:23;17.33;;;12.00;;
23714;SDS011;12036;50.858;4.472;2022-09-24T01:05:50;18.77;;;12.27;;
23714;SDS011;12036;50.858;4.472;2022-09-24T01:08:17;18.40;;;12.43;;
23714;SDS011;12036;50.858;4.472;2022-09-24T01:18:53;21.13;;;13.18;;
23714;SDS011;12036;50.858;4.472;2022-09-24T01:21:48;22.70;;;14.63;;
23714;SDS011;12036;50.858;4.472;2022-09-24T01:27:10;22.20;;;14.68;;
23714;SDS011;12036;50.858;4.472;2022-09-24T01:29:49;25.13;;;15.82;;
23714;SDS011;12036;50.858;4.472;2022-09-24T01:34:53;24.20;;;15.43;;
23714;SDS011;12036;50.858;4.472;2022-09-24T01:37:22;27.67;;;15.70;;
23714;SDS011;12036;50.858;4.472;2022-09-24T01:39:51;26.98;;;16.67;;
23714;SDS011;12036;50.858;4.472;2022-09-24T01:42:19;28.70;;;16.92;;
23714;SDS011;12036;50.858;4.472;2022-09-24T01:44:47;28.10;;;17.63;;
23714;SDS011;12036;50.858;4.472;2022-09-24T01:47:19;27.75;;;17.58;;
23714;SDS011;12036;50.858;4.472;2022-09-24T01:49:50;31.85;;;17.13;;
23714;SDS011;12036;50.858;4.472;2022-09-24T01:52:19;29.02;;;17.05;;
23714;SDS011;12036;50.858;4.472;2022-09-24T01:54:49;26.95;;;16.33;;
23714;SDS011;12036;50.858;4.472;2022-09-24T01:57:29;27.80;;;16.83;;
23714;SDS011;12036;50.858;4.472;2022-09-24T02:10:30;26.20;;;16.20;;
23714;SDS011;12036;50.858;4.472;2022-09-24T02:13:03;26.08;;;16.45;;
23714;SDS011;12036;50.858;4.472;2022-09-24T02:15:32;27.80;;;16.55;;
23714;SDS011;12036;50.858;4.472;2022-09-24T02:18:08;28.33;;;16.92;;
23714;SDS011;12036;50.858;4.472;2022-09-24T02:20:36;29.25;;;17.00;;
23714;SDS011;12036;50.858;4.472;2022-09-24T02:23:05;27.42;;;16.10;;
23714;SDS011;12036;50.858;4.472;2022-09-24T02:25:40;26.20;;;15.98;;
23714;SDS011;12036;50.858;4.472;2022-09-24T02:28:10;28.92;;;15.57;;
23714;SDS011;12036;50.858;4.472;2022-09-24T02:30:58;29.33;;;15.25;;
23714;SDS011;12036;50.858;4.472;2022-09-24T02:33:37;26.27;;;15.48;;
23714;SDS011;12036;50.858;4.472;2022-09-24T02:36:25;28.75;;;15.77;;
23714;SDS011;12036;50.858;4.472;2022-09-24T02:38:51;25.73;;;16.13;;
23714;SDS011;12036;50.858;4.472;2022-09-24T02:41:18;27.33;;;14.95;;
23714;SDS011;12036;50.858;4.472;2022-09-24T02:43:46;27.40;;;16.35;;
23714;SDS011;12036;50.858;4.472;2022-09-24T02:46:12;28.58;;;16.45;;
23714;SDS011;12036;50.858;4.472;2022-09-24T02:48:37;27.67;;;16.00;;
23714;SDS011;12036;50.858;4.472;2022-09-24T02:51:03;28.17;;;15.50;;
23714;SDS011;12036;50.858;4.472;2022-09-24T02:53:30;27.83;;;16.55;;
23714;SDS011;12036;50.858;4.472;2022-09-24T02:55:56;28.50;;;16.27;;
23714;SDS011;12036;50.858;4.472;2022-09-24T02:58:24;26.63;;;15.95;;
23714;SDS011;12036;50.858;4.472;2022-09-24T03:00:49;30.40;;;16.27;;
23714;SDS011;12036;50.858;4.472;2022-09-24T03:03:15;27.85;;;15.48;;
23714;SDS011;12036;50.858;4.472;2022-09-24T03:05:41;30.13;;;17.23;;
23714;SDS011;12036;50.858;4.472;2022-09-24T03:08:06;24.98;;;15.55;;
23714;SDS011;12036;50.858;4.472;2022-09-24T03:10:32;27.45;;;15.50;;
23714;SDS011;12036;50.858;4.472;2022-09-24T03:12:58;27.38;;;15.73;;
23714;SDS011;12036;50.858;4.472;2022-09-24T03:15:24;31.05;;;16.85;;
23714;SDS011;12036;50.858;4.472;2022-09-24T03:17:49;27.83;;;15.52;;
23714;SDS011;12036;50.858;4.472;2022-09-24T03:20:15;34.22;;;17.48;;
23714;SDS011;12036;50.858;4.472;2022-09-24T03:22:41;32.28;;;17.00;;
23714;SDS011;12036;50.858;4.472;2022-09-24T03:25:07;28.95;;;17.35;;
23714;SDS011;12036;50.858;4.472;2022-09-24T03:27:35;26.90;;;15.63;;
23714;SDS011;12036;50.858;4.472;2022-09-24T03:30:00;33.25;;;16.25;;
23714;SDS011;12036;50.858;4.472;2022-09-24T03:32:44;31.60;;;16.42;;
23714;SDS011;12036;50.858;4.472;2022-09-24T03:35:12;28.95;;;15.77;;
23714;SDS011;12036;50.858;4.472;2022-09-24T03:37:39;28.45;;;16.30;;
23714;SDS011;12036;50.858;4.472;2022-09-24T03:40:07;26.05;;;15.13;;
23714;SDS011;12036;50.858;4.472;2022-09-24T03:42:33;28.75;;;16.58;;
23714;SDS011;12036;50.858;4.472;2022-09-24T03:44:59;30.13;;;16.63;;
23714;SDS011;12036;50.858;4.472;2022-09-24T03:47:25;35.70;;;17.05;;
23714;SDS011;12036;50.858;4.472;2022-09-24T03:49:51;32.83;;;17.05;;
23714;SDS011;12036;50.858;4.472;2022-09-24T03:52:17;31.05;;;17.25;;
23714;SDS011;12036;50.858;4.472;2022-09-24T03:54:43;28.45;;;16.67;;
23714;SDS011;12036;50.858;4.472;2022-09-24T03:57:08;30.80;;;16.98;;
23714;SDS011;12036;50.858;4.472;2022-09-24T03:59:38;30.20;;;16.45;;
23714;SDS011;12036;50.858;4.472;2022-09-24T04:02:04;27.33;;;16.17;;
23714;SDS011;12036;50.858;4.472;2022-09-24T04:04:30;32.35;;;16.65;;
23714;SDS011;12036;50.858;4.472;2022-09-24T04:06:56;31.85;;;17.38;;
23714;SDS011;12036;50.858;4.472;2022-09-24T04:09:22;31.70;;;17.08;;
23714;SDS011;12036;50.858;4.472;2022-09-24T04:11:47;34.47;;;17.70;;
23714;SDS011;12036;50.858;4.472;2022-09-24T04:14:13;29.10;;;16.17;;
23714;SDS011;12036;50.858;4.472;2022-09-24T04:16:39;31.23;;;17.48;;
23714;SDS011;12036;50.858;4.472;2022-09-24T04:19:05;34.75;;;18.33;;
23714;SDS011;12036;50.858;4.472;2022-09-24T04:21:32;32.75;;;17.15;;
23714;SDS011;12036;50.858;4.472;2022-09-24T04:23:57;34.50;;;18.00;;
23714;SDS011;12036;50.858;4.472;2022-09-24T04:26:23;32.25;;;17.50;;
23714;SDS011;12036;50.858;4.472;2022-09-24T04:28:49;33.15;;;17.45;;
23714;SDS011;12036;50.858;4.472;2022-09-24T04:31:15;31.77;;;16.92;;
23714;SDS011;12036;50.858;4.472;2022-09-24T04:33:40;29.98;;;17.27;;
23714;SDS011;12036;50.858;4.472;2022-09-24T04:36:06;30.38;;;17.92;;
23714;SDS011;12036;50.858;4.472;2022-09-24T04:38:32;34.60;;;18.70;;
23714;SDS011;12036;50.858;4.472;2022-09-24T04:41:04;31.15;;;17.10;;
23714;SDS011;12036;50.858;4.472;2022-09-24T04:43:31;36.22;;;18.00;;
23714;SDS011;12036;50.858;4.472;2022-09-24T04:45:57;34.67;;;17.98;;
23714;SDS011;12036;50.858;4.472;2022-09-24T04:48:23;33.33;;;17.67;;
23714;SDS011;12036;50.858;4.472;2022-09-24T04:50:49;33.85;;;16.83;;
23714;SDS011;12036;50.858;4.472;2022-09-24T04:53:15;38.25;;;17.15;;
23714;SDS011;12036;50.858;4.472;2022-09-24T04:55:41;32.28;;;18.08;;
23714;SDS011;12036;50.858;4.472;2022-09-24T04:58:07;31.70;;;17.05;;
23714;SDS011;12036;50.858;4.472;2022-09-24T05:00:33;31.58;;;16.85;;
23714;SDS011;12036;50.858;4.472;2022-09-24T05:02:59;35.22;;;18.92;;
23714;SDS011;12036;50.858;4.472;2022-09-24T05:05:29;32.67;;;17.48;;
23714;SDS011;12036;50.858;4.472;2022-09-24T05:07:56;31.52;;;17.08;;
23714;SDS011;12036;50.858;4.472;2022-09-24T05:10:22;35.33;;;19.00;;
23714;SDS011;12036;50.858;4.472;2022-09-24T05:12:51;32.65;;;18.50;;
23714;SDS011;12036;50.858;4.472;2022-09-24T05:15:17;38.38;;;17.95;;
23714;SDS011;12036;50.858;4.472;2022-09-24T05:17:44;35.28;;;18.17;;
23714;SDS011;12036;50.858;4.472;2022-09-24T05:20:09;34.38;;;18.83;;
23714;SDS011;12036;50.858;4.472;2022-09-24T05:22:44;33.05;;;17.10;;
23714;SDS011;12036;50.858;4.472;2022-09-24T05:25:13;34.28;;;17.10;;
23714;SDS011;12036;50.858;4.472;2022-09-24T05:27:44;33.75;;;17.63;;
23714;SDS011;12036;50.858;4.472;2022-09-24T05:30:13;33.15;;;17.20;;
23714;SDS011;12036;50.858;4.472;2022-09-24T05:32:40;34.45;;;16.80;;
23714;SDS011;12036;50.858;4.472;2022-09-24T05:35:06;34.33;;;17.58;;
23714;SDS011;12036;50.858;4.472;2022-09-24T05:37:32;34.00;;;17.27;;
23714;SDS011;12036;50.858;4.472;2022-09-24T05:39:59;33.53;;;17.95;;
23714;SDS011;12036;50.858;4.472;2022-09-24T05:42:47;37.30;;;17.65;;
23714;SDS011;12036;50.858;4.472;2022-09-24T05:45:13;37.75;;;18.35;;
23714;SDS011;12036;50.858;4.472;2022-09-24T05:47:42;36.13;;;17.83;;
23714;SDS011;12036;50.858;4.472;2022-09-24T05:50:13;39.10;;;16.88;;
23714;SDS011;12036;50.858;4.472;2022-09-24T05:52:39;33.97;;;17.50;;
23714;SDS011;12036;50.858;4.472;2022-09-24T05:55:06;35.22;;;16.88;;
23714;SDS011;12036;50.858;4.472;2022-09-24T05:57:33;34.08;;;17.25;;
23714;SDS011;12036;50.858;4.472;2022-09-24T05:59:58;35.83;;;17.13;;
23714;SDS011;12036;50.858;4.472;2022-09-24T06:02:24;39.20;;;16.85;;
23714;SDS011;12036;50.858;4.472;2022-09-24T06:04:50;36.28;;;16.35;;
23714;SDS011;12036;50.858;4.472;2022-09-24T06:07:15;37.00;;;16.95;;
23714;SDS011;12036;50.858;4.472;2022-09-24T06:09:41;31.20;;;16.38;;
23714;SDS011;12036;50.858;4.472;2022-09-24T06:12:08;35.10;;;17.40;;
23714;SDS011;12036;50.858;4.472;2022-09-24T06:14:34;30.50;;;15.77;;
23714;SDS011;12036;50.858;4.472;2022-09-24T06:17:01;32.17;;;16.00;;
23714;SDS011;12036;50.858;4.472;2022-09-24T06:19:26;34.15;;;16.70;;
23714;SDS011;12036;50.858;4.472;2022-09-24T06:21:52;34.70;;;16.30;;
23714;SDS011;12036;50.858;4.472;2022-09-24T06:24:19;32.78;;;16.13;;
23714;SDS011;12036;50.858;4.472;2022-09-24T06:26:44;31.58;;;15.20;;
23714;SDS011;12036;50.858;4.472;2022-09-24T06:29:10;34.33;;;16.10;;
23714;SDS011;12036;50.858;4.472;2022-09-24T06:31:36;29.80;;;14.95;;
23714;SDS011;12036;50.858;4.472;2022-09-24T06:34:02;33.83;;;16.80;;
23714;SDS011;12036;50.858;4.472;2022-09-24T06:36:27;31.60;;;16.38;;
23714;SDS011;12036;50.858;4.472;2022-09-24T06:38:53;36.53;;;16.08;;
23714;SDS011;12036;50.858;4.472;2022-09-24T06:41:18;52.17;;;17.80;;
23714;SDS011;12036;50.858;4.472;2022-09-24T06:43:44;35.33;;;16.38;;
23714;SDS011;12036;50.858;4.472;2022-09-24T06:46:10;33.83;;;16.55;;
23714;SDS011;12036;50.858;4.472;2022-09-24T06:48:37;33.55;;;15.43;;
23714;SDS011;12036;50.858;4.472;2022-09-24T06:51:04;41.33;;;16.67;;
23714;SDS011;12036;50.858;4.472;2022-09-24T06:53:30;35.92;;;16.13;;
23714;SDS011;12036;50.858;4.472;2022-09-24T06:55:56;30.27;;;15.70;;
23714;SDS011;12036;50.858;4.472;2022-09-24T06:58:27;31.77;;;15.35;;
23714;SDS011;12036;50.858;4.472;2022-09-24T07:00:57;34.90;;;15.35;;
23714;SDS011;12036;50.858;4.472;2022-09-24T07:05:52;31.45;;;15.07;;
23714;SDS011;12036;50.858;4.472;2022-09-24T07:08:18;26.17;;;13.73;;
23714;SDS011;12036;50.858;4.472;2022-09-24T07:10:44;31.98;;;15.70;;
23714;SDS011;12036;50.858;4.472;2022-09-24T07:13:12;28.48;;;15.10;;
23714;SDS011;12036;50.858;4.472;2022-09-24T07:15:38;30.45;;;15.35;;
23714;SDS011;12036;50.858;4.472;2022-09-24T07:18:04;31.80;;;15.52;;
23714;SDS011;12036;50.858;4.472;2022-09-24T07:20:30;35.05;;;14.57;;
23714;SDS011;12036;50.858;4.472;2022-09-24T07:22:57;30.52;;;14.85;;
23714;SDS011;12036;50.858;4.472;2022-09-24T07:25:23;29.27;;;14.23;;
23714;SDS011;12036;50.858;4.472;2022-09-24T07:27:48;30.20;;;14.70;;
23714;SDS011;12036;50.858;4.472;2022-09-24T07:30:14;25.35;;;14.05;;
23714;SDS011;12036;50.858;4.472;2022-09-24T07:32:40;27.42;;;15.15;;
23714;SDS011;12036;50.858;4.472;2022-09-24T07:35:06;26.88;;;14.38;;
23714;SDS011;12036;50.858;4.472;2022-09-24T07:37:31;29.38;;;14.85;;
23714;SDS011;12036;50.858;4.472;2022-09-24T07:39:58;29.95;;;14.32;;
23714;SDS011;12036;50.858;4.472;2022-09-24T07:42:24;32.55;;;15.27;;
23714;SDS011;12036;50.858;4.472;2022-09-24T07:44:50;32.78;;;14.15;;
23714;SDS011;12036;50.858;4.472;2022-09-24T07:47:16;28.45;;;14.43;;
23714;SDS011;12036;50.858;4.472;2022-09-24T07:49:42;29.05;;;14.30;;
23714;SDS011;12036;50.858;4.472;2022-09-24T07:52:09;27.92;;;14.75;;
23714;SDS011;12036;50.858;4.472;2022-09-24T07:54:35;29.55;;;14.20;;
23714;SDS011;12036;50.858;4.472;2022-09-24T07:57:07;32.42;;;14.50;;
23714;SDS011;12036;50.858;4.472;2022-09-24T07:59:36;31.95;;;14.35;;
23714;SDS011;12036;50.858;4.472;2022-09-24T08:02:02;29.77;;;14.48;;
23714;SDS011;12036;50.858;4.472;2022-09-24T08:04:27;31.20;;;15.52;;
23714;SDS011;12036;50.858;4.472;2022-09-24T08:06:54;27.60;;;13.98;;
23714;SDS011;12036;50.858;4.472;2022-09-24T08:09:20;28.75;;;14.25;;
23714;SDS011;12036;50.858;4.472;2022-09-24T08:11:47;28.13;;;14.43;;
23714;SDS011;12036;50.858;4.472;2022-09-24T08:14:13;24.73;;;14.52;;
23714;SDS011;12036;50.858;4.472;2022-09-24T08:16:39;24.85;;;13.70;;
23714;SDS011;12036;50.858;4.472;2022-09-24T08:19:05;27.40;;;14.25;;
23714;SDS011;12036;50.858;4.472;2022-09-24T08:21:37;24.85;;;14.32;;
23714;SDS011;12036;50.858;4.472;2022-09-24T08:24:03;22.77;;;13.68;;
23714;SDS011;12036;50.858;4.472;2022-09-24T08:26:28;28.10;;;15.38;;
23714;SDS011;12036;50.858;4.472;2022-09-24T08:28:54;26.85;;;15.35;;
23714;SDS011;12036;50.858;4.472;2022-09-24T08:31:20;31.85;;;15.65;;
23714;SDS011;12036;50.858;4.472;2022-09-24T08:33:45;28.80;;;15.35;;
23714;SDS011;12036;50.858;4.472;2022-09-24T08:36:14;29.13;;;16.10;;
23714;SDS011;12036;50.858;4.472;2022-09-24T08:38:40;26.88;;;15.00;;
23714;SDS011;12036;50.858;4.472;2022-09-24T08:41:13;24.08;;;14.52;;
23714;SDS011;12036;50.858;4.472;2022-09-24T08:44:12;26.55;;;14.55;;
23714;SDS011;12036;50.858;4.472;2022-09-24T08:50:12;30.23;;;14.95;;
23714;SDS011;12036;50.858;4.472;2022-09-24T08:55:41;32.05;;;14.77;;
23714;SDS011;12036;50.858;4.472;2022-09-24T09:00:41;25.90;;;14.50;;
23714;SDS011;12036;50.858;4.472;2022-09-24T09:04:17;27.73;;;13.80;;
23714;SDS011;12036;50.858;4.472;2022-09-24T09:09:21;24.85;;;14.23;;
23714;SDS011;12036;50.858;4.472;2022-09-24T09:11:50;27.05;;;14.38;;
23714;SDS011;12036;50.858;4.472;2022-09-24T09:17:04;28.08;;;14.32;;
23714;SDS011;12036;50.858;4.472;2022-09-24T09:19:47;28.20;;;14.15;;
23714;SDS011;12036;50.858;4.472;2022-09-24T09:22:20;25.77;;;13.93;;
23714;SDS011;12036;50.858;4.472;2022-09-24T09:24:50;25.08;;;14.85;;
23714;SDS011;12036;50.858;4.472;2022-09-24T09:27:18;25.63;;;14.20;;
23714;SDS011;12036;50.858;4.472;2022-09-24T09:29:47;26.58;;;14.35;;
23714;SDS011;12036;50.858;4.472;2022-09-24T09:37:48;27.45;;;14.95;;
23714;SDS011;12036;50.858;4.472;2022-09-24T09:43:00;27.67;;;15.80;;
23714;SDS011;12036;50.858;4.472;2022-09-24T09:48:03;26.80;;;14.55;;
23714;SDS011;12036;50.858;4.472;2022-09-24T09:50:47;25.50;;;15.15;;
23714;SDS011;12036;50.858;4.472;2022-09-24T09:53:21;27.92;;;15.50;;
23714;SDS011;12036;50.858;4.472;2022-09-24T09:55:55;23.95;;;14.13;;
23714;SDS011;12036;50.858;4.472;2022-09-24T09:58:25;25.55;;;13.63;;
23714;SDS011;12036;50.858;4.472;2022-09-24T10:00:52;28.52;;;14.70;;
23714;SDS011;12036;50.858;4.472;2022-09-24T10:03:33;24.50;;;12.70;;
23714;SDS011;12036;50.858;4.472;2022-09-24T10:06:11;25.50;;;13.38;;
23714;SDS011;12036;50.858;4.472;2022-09-24T10:08:38;23.88;;;13.00;;
23714;SDS011;12036;50.858;4.472;2022-09-24T10:11:04;28.95;;;13.90;;
23714;SDS011;12036;50.858;4.472;2022-09-24T10:13:31;23.67;;;12.57;;
23714;SDS011;12036;50.858;4.472;2022-09-24T10:15:58;24.92;;;13.32;;
23714;SDS011;12036;50.858;4.472;2022-09-24T10:18:32;20.30;;;12.02;;
23714;SDS011;12036;50.858;4.472;2022-09-24T10:20:58;23.77;;;13.00;;
23714;SDS011;12036;50.858;4.472;2022-09-24T10:23:38;24.08;;;12.90;;
23714;SDS011;12036;50.858;4.472;2022-09-24T10:26:04;21.08;;;12.55;;
23714;SDS011;12036;50.858;4.472;2022-09-24T10:28:32;22.58;;;12.73;;
23714;SDS011;12036;50.858;4.472;2022-09-24T10:31:20;24.40;;;12.98;;
23714;SDS011;12036;50.858;4.472;2022-09-24T10:33:49;24.38;;;13.40;;
23714;SDS011;12036;50.858;4.472;2022-09-24T10:36:22;22.85;;;12.85;;
23714;SDS011;12036;50.858;4.472;2022-09-24T10:41:36;23.23;;;13.05;;
23714;SDS011;12036;50.858;4.472;2022-09-24T10:44:09;24.17;;;13.77;;
23714;SDS011;12036;50.858;4.472;2022-09-24T10:52:01;24.45;;;13.95;;
23714;SDS011;12036;50.858;4.472;2022-09-24T11:00:07;22.80;;;12.35;;
23714;SDS011;12036;50.858;4.472;2022-09-24T11:05:41;20.90;;;10.57;;
23714;SDS011;12036;50.858;4.472;2022-09-24T11:30:09;15.80;;;8.73;;
23714;SDS011;12036;50.858;4.472;2022-09-24T11:39:10;18.70;;;9.93;;
23714;SDS011;12036;50.858;4.472;2022-09-24T11:42:03;17.67;;;9.68;;
23714;SDS011;12036;50.858;4.472;2022-09-24T11:52:32;17.00;;;9.73;;
23714;SDS011;12036;50.858;4.472;2022-09-24T11:55:21;14.18;;;8.68;;
23714;SDS011;12036;50.858;4.472;2022-09-24T11:58:19;18.25;;;10.02;;
23714;SDS011;12036;50.858;4.472;2022-09-24T12:03:38;17.02;;;10.05;;
23714;SDS011;12036;50.858;4.472;2022-09-24T12:06:19;17.77;;;10.43;;
23714;SDS011;12036;50.858;4.472;2022-09-24T12:11:35;21.90;;;10.80;;
23714;SDS011;12036;50.858;4.472;2022-09-24T12:14:23;23.35;;;10.85;;
23714;SDS011;12036;50.858;4.472;2022-09-24T12:16:53;24.52;;;11.02;;
23714;SDS011;12036;50.858;4.472;2022-09-24T12:22:13;17.15;;;10.27;;
23714;SDS011;12036;50.858;4.472;2022-09-24T12:24:50;26.17;;;11.77;;
23714;SDS011;12036;50.858;4.472;2022-09-24T12:27:36;20.15;;;11.30;;
23714;SDS011;12036;50.858;4.472;2022-09-24T12:46:20;26.17;;;12.10;;
23714;SDS011;12036;50.858;4.472;2022-09-24T12:48:49;20.70;;;11.60;;
23714;SDS011;12036;50.858;4.472;2022-09-24T12:51:17;22.15;;;11.75;;
23714;SDS011;12036;50.858;4.472;2022-09-24T12:56:48;24.25;;;12.20;;
23714;SDS011;12036;50.858;4.472;2022-09-24T12:59:44;18.48;;;11.60;;
23714;SDS011;12036;50.858;4.472;2022-09-24T13:02:29;20.48;;;12.30;;
23714;SDS011;12036;50.858;4.472;2022-09-24T13:08:01;22.02;;;13.30;;
23714;SDS011;12036;50.858;4.472;2022-09-24T13:10:33;19.55;;;12.05;;
23714;SDS011;12036;50.858;4.472;2022-09-24T13:13:00;28.45;;;15.15;;
23714;SDS011;12036;50.858;4.472;2022-09-24T13:15:39;26.50;;;13.55;;
23714;SDS011;12036;50.858;4.472;2022-09-24T13:18:17;23.70;;;13.35;;
23714;SDS011;12036;50.858;4.472;2022-09-24T13:26:02;26.67;;;14.45;;
23714;SDS011;12036;50.858;4.472;2022-09-24T13:28:31;25.42;;;13.35;;
23714;SDS011;12036;50.858;4.472;2022-09-24T13:34:21;22.35;;;13.30;;
23714;SDS011;12036;50.858;4.472;2022-09-24T13:36:53;23.60;;;14.15;;
23714;SDS011;12036;50.858;4.472;2022-09-24T13:42:16;24.52;;;13.95;;
23714;SDS011;12036;50.858;4.472;2022-09-24T13:44:55;24.25;;;14.48;;
23714;SDS011;12036;50.858;4.472;2022-09-24T13:47:31;24.60;;;14.05;;
23714;SDS011;12036;50.858;4.472;2022-09-24T13:50:16;22.00;;;14.30;;
23714;SDS011;12036;50.858;4.472;2022-09-24T13:52:47;23.70;;;13.90;;
23714;SDS011;12036;50.858;4.472;2022-09-24T13:55:16;23.30;;;12.60;;
23714;SDS011;12036;50.858;4.472;2022-09-24T13:57:46;22.35;;;14.18;;
23714;SDS011;12036;50.858;4.472;2022-09-24T14:02:51;21.05;;;13.07;;
23714;SDS011;12036;50.858;4.472;2022-09-24T14:05:37;23.67;;;14.32;;
23714;SDS011;12036;50.858;4.472;2022-09-24T14:08:05;19.88;;;13.63;;
23714;SDS011;12036;50.858;4.472;2022-09-24T14:10:33;21.67;;;14.10;;
23714;SDS011;12036;50.858;4.472;2022-09-24T14:13:12;21.70;;;13.18;;
23714;SDS011;12036;50.858;4.472;2022-09-24T14:15:51;21.23;;;13.23;;
23714;SDS011;12036;50.858;4.472;2022-09-24T14:18:27;26.00;;;13.52;;
23714;SDS011;12036;50.858;4.472;2022-09-24T14:23:47;33.30;;;21.73;;
23714;SDS011;12036;50.858;4.472;2022-09-24T14:26:42;26.02;;;15.50;;
23714;SDS011;12036;50.858;4.472;2022-09-24T14:29:16;25.17;;;15.55;;
23714;SDS011;12036;50.858;4.472;2022-09-24T14:31:48;22.27;;;15.10;;
23714;SDS011;12036;50.858;4.472;2022-09-24T14:34:24;24.10;;;15.55;;
23714;SDS011;12036;50.858;4.472;2022-09-24T14:36:54;23.83;;;14.85;;
23714;SDS011;12036;50.858;4.472;2022-09-24T14:39:23;23.40;;;15.65;;
23714;SDS011;12036;50.858;4.472;2022-09-24T14:41:51;26.55;;;16.30;;
23714;SDS011;12036;50.858;4.472;2022-09-24T14:44:20;22.83;;;14.82;;
23714;SDS011;12036;50.858;4.472;2022-09-24T14:46:49;24.92;;;15.38;;
23714;SDS011;12036;50.858;4.472;2022-09-24T14:51:52;26.80;;;18.15;;
23714;SDS011;12036;50.858;4.472;2022-09-24T14:56:55;30.25;;;18.65;;
23714;SDS011;12036;50.858;4.472;2022-09-24T14:59:26;25.95;;;17.15;;
23714;SDS011;12036;50.858;4.472;2022-09-24T15:02:01;30.25;;;19.58;;
23714;SDS011;12036;50.858;4.472;2022-09-24T15:04:39;32.38;;;19.88;;
23714;SDS011;12036;50.858;4.472;2022-09-24T15:07:15;29.52;;;17.52;;
23714;SDS011;12036;50.858;4.472;2022-09-24T15:09:49;32.97;;;19.77;;
23714;SDS011;12036;50.858;4.472;2022-09-24T15:12:23;31.50;;;19.27;;
23714;SDS011;12036;50.858;4.472;2022-09-24T15:17:48;27.83;;;17.08;;
23714;SDS011;12036;50.858;4.472;2022-09-24T15:20:14;25.00;;;16.48;;
23714;SDS011;12036;50.858;4.472;2022-09-24T15:22:40;24.05;;;16.05;;
23714;SDS011;12036;50.858;4.472;2022-09-24T15:25:06;26.45;;;17.60;;
23714;SDS011;12036;50.858;4.472;2022-09-24T15:27:36;23.73;;;15.52;;
23714;SDS011;12036;50.858;4.472;2022-09-24T15:30:03;22.63;;;15.55;;
23714;SDS011;12036;50.858;4.472;2022-09-24T15:32:31;26.20;;;15.95;;
23714;SDS011;12036;50.858;4.472;2022-09-24T15:34:59;25.38;;;16.77;;
23714;SDS011;12036;50.858;4.472;2022-09-24T15:37:31;23.85;;;15.70;;
23714;SDS011;12036;50.858;4.472;2022-09-24T15:40:05;25.27;;;14.90;;
23714;SDS011;12036;50.858;4.472;2022-09-24T15:42:43;22.38;;;14.90;;
23714;SDS011;12036;50.858;4.472;2022-09-24T15:45:14;23.90;;;15.05;;
23714;SDS011;12036;50.858;4.472;2022-09-24T15:47:41;24.58;;;15.20;;
23714;SDS011;12036;50.858;4.472;2022-09-24T15:50:07;37.75;;;20.73;;
23714;SDS011;12036;50.858;4.472;2022-09-24T15:52:33;23.60;;;15.32;;
23714;SDS011;12036;50.858;4.472;2022-09-24T15:55:24;24.55;;;15.55;;
23714;SDS011;12036;50.858;4.472;2022-09-24T15:57:49;22.25;;;15.18;;
23714;SDS011;12036;50.858;4.472;2022-09-24T16:00:16;24.58;;;14.13;;
23714;SDS011;12036;50.858;4.472;2022-09-24T16:02:45;25.10;;;14.70;;
23714;SDS011;12036;50.858;4.472;2022-09-24T16:05:14;26.33;;;14.02;;
23714;SDS011;12036;50.858;4.472;2022-09-24T16:07:41;21.83;;;13.30;;
23714;SDS011;12036;50.858;4.472;2022-09-24T16:10:07;20.65;;;12.82;;
23714;SDS011;12036;50.858;4.472;2022-09-24T16:12:34;28.35;;;14.95;;
23714;SDS011;12036;50.858;4.472;2022-09-24T16:14:59;21.42;;;13.57;;
23714;SDS011;12036;50.858;4.472;2022-09-24T16:17:26;32.50;;;19.75;;
23714;SDS011;12036;50.858;4.472;2022-09-24T16:19:52;22.98;;;14.20;;
23714;SDS011;12036;50.858;4.472;2022-09-24T16:22:18;22.05;;;14.80;;
23714;SDS011;12036;50.858;4.472;2022-09-24T16:24:44;27.40;;;14.13;;
23714;SDS011;12036;50.858;4.472;2022-09-24T16:27:10;22.48;;;13.73;;
23714;SDS011;12036;50.858;4.472;2022-09-24T16:29:36;26.77;;;15.85;;
23714;SDS011;12036;50.858;4.472;2022-09-24T16:32:01;27.63;;;16.42;;
23714;SDS011;12036;50.858;4.472;2022-09-24T16:34:27;24.58;;;14.90;;
23714;SDS011;12036;50.858;4.472;2022-09-24T16:36:53;25.27;;;14.65;;
23714;SDS011;12036;50.858;4.472;2022-09-24T16:39:19;22.00;;;13.57;;
23714;SDS011;12036;50.858;4.472;2022-09-24T16:41:48;20.80;;;12.38;;
23714;SDS011;12036;50.858;4.472;2022-09-24T16:44:15;22.23;;;13.90;;
23714;SDS011;12036;50.858;4.472;2022-09-24T16:46:44;23.40;;;12.88;;
23714;SDS011;12036;50.858;4.472;2022-09-24T16:49:10;24.10;;;12.25;;
23714;SDS011;12036;50.858;4.472;2022-09-24T16:51:36;22.55;;;13.65;;
23714;SDS011;12036;50.858;4.472;2022-09-24T16:54:02;20.65;;;13.15;;
23714;SDS011;12036;50.858;4.472;2022-09-24T16:56:30;21.00;;;13.43;;
23714;SDS011;12036;50.858;4.472;2022-09-24T16:58:56;26.80;;;15.20;;
23714;SDS011;12036;50.858;4.472;2022-09-24T17:01:21;21.95;;;13.27;;
23714;SDS011;12036;50.858;4.472;2022-09-24T17:03:51;37.20;;;24.30;;
23714;SDS011;12036;50.858;4.472;2022-09-24T17:06:18;29.73;;;19.13;;
23714;SDS011;12036;50.858;4.472;2022-09-24T17:08:46;31.15;;;15.93;;
23714;SDS011;12036;50.858;4.472;2022-09-24T17:11:30;21.63;;;12.60;;
23714;SDS011;12036;50.858;4.472;2022-09-24T17:13:56;25.27;;;12.70;;
23714;SDS011;12036;50.858;4.472;2022-09-24T17:16:23;25.55;;;14.10;;
23714;SDS011;12036;50.858;4.472;2022-09-24T17:18:49;21.60;;;12.65;;